createdAt,value
2023-05-02T00:02:05.561Z,7.67
2023-05-02T00:05:08.669Z,9.45
2023-05-02T00:08:13.586Z,8.15
2023-05-02T00:11:16.215Z,8.77
2023-05-02T00:14:27.070Z,9.52
2023-05-02T00:17:29.582Z,10.23
2023-05-02T00:20:31.316Z,8.50
2023-05-02T00:23:33.758Z,8.60
2023-05-02T00:26:39.097Z,8.02
2023-05-02T00:29:44.642Z,8.82
2023-05-02T00:32:47.770Z,8.23
2023-05-02T00:35:53.929Z,9.45
2023-05-02T00:38:56.787Z,8.68
2023-05-02T00:41:59.937Z,8.50
2023-05-02T00:45:04.633Z,7.65
2023-05-02T00:48:09.264Z,8.25
2023-05-02T00:51:13.357Z,7.60
2023-05-02T00:54:17.628Z,7.95
2023-05-02T00:57:19.237Z,8.02
2023-05-02T01:00:21.719Z,8.48
2023-05-02T01:03:32.258Z,8.37
2023-05-02T01:07:06.001Z,7.90
2023-05-02T01:10:20.193Z,8.05
2023-05-02T01:13:29.285Z,7.20
2023-05-02T01:16:33.909Z,7.53
2023-05-02T01:19:43.184Z,7.63
2023-05-02T01:22:47.552Z,7.00
2023-05-02T01:26:11.681Z,8.00
2023-05-02T01:29:23.438Z,7.68
2023-05-02T01:32:27.702Z,8.93
2023-05-02T01:35:33.845Z,8.57
2023-05-02T01:38:39.607Z,7.65
2023-05-02T01:41:45.257Z,8.02
2023-05-02T01:44:54.117Z,8.27
2023-05-02T01:47:58.133Z,6.95
2023-05-02T01:51:03.978Z,6.78
2023-05-02T01:54:09.048Z,7.88
2023-05-02T01:57:13.024Z,7.00
2023-05-02T02:00:19.673Z,6.97
2023-05-02T02:03:22.924Z,7.03
2023-05-02T02:06:27.528Z,7.17
2023-05-02T02:09:33.978Z,7.65
2023-05-02T02:12:42.628Z,8.25
2023-05-02T02:15:49.904Z,7.47
2023-05-02T02:18:57.332Z,7.10
2023-05-02T02:22:04.574Z,8.15
2023-05-02T02:25:11.084Z,7.75
2023-05-02T02:28:13.128Z,7.90
2023-05-02T02:31:14.929Z,7.28
2023-05-02T02:34:19.724Z,8.05
2023-05-02T02:37:31.532Z,7.20
2023-05-02T02:41:00.993Z,7.38
2023-05-02T02:44:24.281Z,7.68
2023-05-02T02:47:32.253Z,8.83
2023-05-02T02:50:55.934Z,9.18
2023-05-02T02:54:02.366Z,8.65
2023-05-02T02:58:03.646Z,8.80
2023-05-02T03:01:14.116Z,9.45
2023-05-02T03:04:19.862Z,8.63
2023-05-02T03:07:24.617Z,10.88
2023-05-02T03:10:27.023Z,8.53
2023-05-02T03:16:48.568Z,9.82
2023-05-02T03:19:50.432Z,9.20
2023-05-02T03:22:55.572Z,9.30
2023-05-02T03:26:00.313Z,9.85
2023-05-02T03:29:02.020Z,9.10
2023-05-02T03:32:13.125Z,9.43
2023-05-02T03:35:18.561Z,9.07
2023-05-02T03:38:22.322Z,10.70
2023-05-02T03:41:25.425Z,10.17
2023-05-02T03:44:34.742Z,10.32
2023-05-02T03:47:36.810Z,11.93
2023-05-02T03:50:39.281Z,10.63
2023-05-02T03:53:41.044Z,11.77
2023-05-02T03:56:44.545Z,11.70
2023-05-02T03:59:58.996Z,13.02
2023-05-02T04:03:03.234Z,9.63
2023-05-02T04:06:07.546Z,10.73
2023-05-02T04:09:10.340Z,9.93
2023-05-02T04:12:22.345Z,10.70
2023-05-02T04:15:26.295Z,10.52
2023-05-02T04:18:29.547Z,11.00
2023-05-02T04:21:33.149Z,11.30
2023-05-02T04:24:37.210Z,10.63
2023-05-02T04:27:39.035Z,12.23
2023-05-02T04:30:45.719Z,10.27
2023-05-02T04:33:49.476Z,9.75
2023-05-02T04:36:55.398Z,11.73
2023-05-02T04:40:01.712Z,10.88
2023-05-02T04:43:05.867Z,11.43
2023-05-02T04:46:18.197Z,14.57
2023-05-02T04:49:20.926Z,12.00
2023-05-02T04:52:22.734Z,12.13
2023-05-02T04:55:24.428Z,13.88
2023-05-02T04:58:26.089Z,13.57
2023-05-02T05:01:34.092Z,13.43
2023-05-02T05:04:38.215Z,11.25
2023-05-02T05:07:41.006Z,12.75
2023-05-02T05:10:43.934Z,13.93
2023-05-02T05:13:47.397Z,14.70
2023-05-02T05:16:50.289Z,14.63
2023-05-02T05:19:52.904Z,14.98
2023-05-02T05:22:55.325Z,12.47
2023-05-02T05:26:09.022Z,14.02
2023-05-02T05:29:11.678Z,15.32
2023-05-02T05:32:17.689Z,13.90
2023-05-02T05:35:20.772Z,14.73
2023-05-02T05:38:25.016Z,14.40
2023-05-02T05:41:27.155Z,14.23
2023-05-02T05:44:36.807Z,13.77
2023-05-02T05:47:39.493Z,14.95
2023-05-02T05:50:42.527Z,14.63
2023-05-02T05:53:45.313Z,14.37
2023-05-02T05:56:50.101Z,14.15
2023-05-02T05:59:54.679Z,17.08
2023-05-02T06:02:58.963Z,14.45
2023-05-02T06:06:04.557Z,14.98
2023-05-02T06:09:07.500Z,15.45
2023-05-02T06:12:09.286Z,17.48
2023-05-02T06:15:13.057Z,14.23
2023-05-02T06:18:16.366Z,15.95
2023-05-02T06:21:18.695Z,17.40
2023-05-02T06:24:21.510Z,15.80
2023-05-02T06:27:23.559Z,17.30
2023-05-02T06:30:27.402Z,16.65
2023-05-02T06:33:34.300Z,16.02
2023-05-02T06:36:37.024Z,15.05
2023-05-02T06:39:39.920Z,15.07
2023-05-02T06:42:42.461Z,15.77
2023-05-02T06:45:45.825Z,15.93
2023-05-02T06:48:50.552Z,14.43
2023-05-02T06:51:52.756Z,17.75
2023-05-02T06:54:54.854Z,13.73
2023-05-02T06:57:59.282Z,14.88
2023-05-02T07:01:01.381Z,13.13
2023-05-02T07:04:08.195Z,14.45
2023-05-02T07:07:10.341Z,16.48
2023-05-02T07:10:13.698Z,15.93
2023-05-02T07:13:17.348Z,14.50
2023-05-02T07:16:20.444Z,14.33
2023-05-02T07:19:23.451Z,15.15
2023-05-02T07:22:25.400Z,14.38
2023-05-02T07:25:31.012Z,16.00
2023-05-02T07:28:35.129Z,16.33
2023-05-02T07:31:39.314Z,17.10
2023-05-02T07:34:44.418Z,16.58
2023-05-02T07:37:47.820Z,17.50
2023-05-02T07:40:52.282Z,16.60
2023-05-02T07:43:59.546Z,16.77
2023-05-02T07:47:05.364Z,15.67
2023-05-02T07:50:10.810Z,15.80
2023-05-02T07:53:15.621Z,15.73
2023-05-02T07:56:21.754Z,16.77
2023-05-02T07:59:24.468Z,15.20
2023-05-02T08:02:30.027Z,17.23
2023-05-02T08:05:35.331Z,16.60
2023-05-02T08:08:40.201Z,16.73
2023-05-02T08:11:43.969Z,16.95
2023-05-02T08:14:48.294Z,14.82
2023-05-02T08:17:53.098Z,17.13
2023-05-02T08:20:58.668Z,19.00
2023-05-02T08:24:01.258Z,17.95
2023-05-02T08:27:04.550Z,16.30
2023-05-02T08:30:09.017Z,16.35
2023-05-02T08:33:17.432Z,15.50
2023-05-02T08:36:22.339Z,16.70
2023-05-02T08:39:26.859Z,16.63
2023-05-02T08:42:33.564Z,16.63
2023-05-02T08:45:41.187Z,15.60
2023-05-02T08:48:45.123Z,16.35
2023-05-02T08:51:52.053Z,14.17
2023-05-02T08:54:54.855Z,14.43
2023-05-02T08:57:58.669Z,15.48
2023-05-02T09:01:05.273Z,14.98
2023-05-02T09:04:07.423Z,16.17
2023-05-02T09:07:10.840Z,14.27
2023-05-02T09:10:14.269Z,14.98
2023-05-02T09:13:36.446Z,14.07
2023-05-02T09:16:40.672Z,15.77
2023-05-02T09:19:42.719Z,14.50
2023-05-02T09:22:52.793Z,15.13
2023-05-02T09:25:54.758Z,15.15
2023-05-02T09:28:58.241Z,16.00
2023-05-02T09:32:00.443Z,15.80
2023-05-02T09:35:07.110Z,15.05
2023-05-02T09:38:20.240Z,16.07
2023-05-02T09:41:23.469Z,14.82
2023-05-02T09:44:27.735Z,15.40
2023-05-02T09:47:30.989Z,15.60
2023-05-02T09:50:35.124Z,16.02
2023-05-02T09:53:45.523Z,18.35
2023-05-02T09:56:57.414Z,15.60
2023-05-02T10:00:00.381Z,15.93
2023-05-02T10:03:06.950Z,16.67
2023-05-02T10:06:10.784Z,15.98
2023-05-02T10:09:23.838Z,16.42
2023-05-02T10:12:28.357Z,17.47
2023-05-02T10:15:32.637Z,17.23
2023-05-02T10:18:58.923Z,17.40
2023-05-02T10:22:03.214Z,17.60
2023-05-02T10:25:07.340Z,15.33
2023-05-02T10:28:10.518Z,18.65
2023-05-02T10:31:13.769Z,16.65
2023-05-02T10:34:19.510Z,15.75
2023-05-02T10:37:25.023Z,16.27
2023-05-02T10:40:28.753Z,16.95
2023-05-02T10:43:41.234Z,16.02
2023-05-02T10:46:44.693Z,19.13
2023-05-02T10:49:58.185Z,16.42
2023-05-02T10:53:25.866Z,16.63
2023-05-02T10:56:29.309Z,18.15
2023-05-02T10:59:41.672Z,18.05
2023-05-02T11:02:45.065Z,17.48
2023-05-02T11:06:09.863Z,16.67
2023-05-02T11:09:27.287Z,18.70
2023-05-02T11:12:54.882Z,16.52
2023-05-02T11:15:57.349Z,17.77
2023-05-02T11:19:02.102Z,16.83
2023-05-02T11:22:19.271Z,13.35
2023-05-02T11:25:38.667Z,14.25
2023-05-02T11:28:48.127Z,14.77
2023-05-02T11:31:55.721Z,14.83
2023-05-02T11:34:58.239Z,16.48
2023-05-02T11:38:03.806Z,15.75
2023-05-02T11:41:06.080Z,15.55
2023-05-02T11:44:07.830Z,14.63
2023-05-02T11:47:10.065Z,15.20
2023-05-02T11:50:13.690Z,14.50
2023-05-02T11:53:18.311Z,15.32
2023-05-02T11:56:29.169Z,12.88
2023-05-02T11:59:31.419Z,13.70
2023-05-02T12:02:37.387Z,13.15
2023-05-02T12:05:40.848Z,13.07
2023-05-02T12:09:27.631Z,13.27
2023-05-02T12:12:29.723Z,15.00
2023-05-02T12:15:39.425Z,13.88
2023-05-02T12:18:42.768Z,13.98
2023-05-02T12:21:44.857Z,13.20
2023-05-02T12:24:49.280Z,13.35
2023-05-02T12:28:06.060Z,12.15
2023-05-02T12:31:11.617Z,14.20
2023-05-02T12:34:33.757Z,13.13
2023-05-02T12:37:39.056Z,12.18
2023-05-02T12:40:58.976Z,10.63
2023-05-02T12:44:01.635Z,11.30
2023-05-02T12:47:03.984Z,11.68
2023-05-02T12:50:06.478Z,10.15
2023-05-02T12:53:08.957Z,11.00
2023-05-02T12:56:11.784Z,9.60
2023-05-02T12:59:31.151Z,9.98
2023-05-02T13:02:33.300Z,9.88
2023-05-02T13:05:36.996Z,9.38
2023-05-02T13:08:41.369Z,9.57
2023-05-02T13:11:44.543Z,9.13
2023-05-02T13:14:46.817Z,9.20
2023-05-02T13:17:50.610Z,9.88
2023-05-02T13:20:52.877Z,10.23
2023-05-02T13:23:56.898Z,10.40
2023-05-02T13:26:58.952Z,10.05
2023-05-02T13:30:05.542Z,10.13
2023-05-02T13:33:09.527Z,9.07
2023-05-02T13:36:13.054Z,9.35
2023-05-02T13:39:15.562Z,10.30
2023-05-02T13:42:17.192Z,8.55
2023-05-02T13:45:19.301Z,10.15
2023-05-02T13:48:23.361Z,8.82
2023-05-02T13:51:27.628Z,9.07
2023-05-02T13:54:29.283Z,9.03
2023-05-02T13:57:30.866Z,7.70
2023-05-02T14:00:36.274Z,8.98
2023-05-02T14:03:41.833Z,7.60
2023-05-02T14:06:45.699Z,8.80
2023-05-02T14:09:49.680Z,7.57
2023-05-02T14:12:53.140Z,8.35
2023-05-02T14:15:56.463Z,9.70
2023-05-02T14:18:59.423Z,7.72
2023-05-02T14:22:01.484Z,10.18
2023-05-02T14:25:05.932Z,7.83
2023-05-02T14:28:08.638Z,7.63
2023-05-02T14:31:10.474Z,9.73
2023-05-02T14:34:13.259Z,8.32
2023-05-02T14:37:15.941Z,8.23
2023-05-02T14:40:18.160Z,7.83
2023-05-02T14:43:23.602Z,9.98
2023-05-02T14:46:25.431Z,9.82
2023-05-02T14:49:28.548Z,10.23
2023-05-02T14:52:30.194Z,8.65
2023-05-02T14:55:36.905Z,8.77
2023-05-02T14:58:38.840Z,9.05
2023-05-02T15:01:43.126Z,8.98
2023-05-02T15:04:45.581Z,8.20
2023-05-02T15:07:48.149Z,7.10
2023-05-02T15:10:51.116Z,7.50
2023-05-02T15:13:54.783Z,8.63
2023-05-02T15:16:59.126Z,8.30
2023-05-02T15:20:02.243Z,7.75
2023-05-02T15:23:04.983Z,7.97
2023-05-02T15:26:07.056Z,7.73
2023-05-02T15:29:11.682Z,7.95
2023-05-02T15:32:14.169Z,7.75
2023-05-02T15:35:17.465Z,6.72
2023-05-02T15:38:20.701Z,6.40
2023-05-02T15:41:22.768Z,7.73
2023-05-02T15:44:26.198Z,7.85
2023-05-02T15:47:27.960Z,7.00
2023-05-02T15:50:32.108Z,8.50
2023-05-02T15:53:34.667Z,8.33
2023-05-02T15:56:36.753Z,8.82
2023-05-02T15:59:39.448Z,10.02
2023-05-02T16:02:43.782Z,9.88
2023-05-02T16:05:46.738Z,9.07
2023-05-02T16:08:49.229Z,8.40
2023-05-02T16:11:51.499Z,7.93
2023-05-02T16:14:53.219Z,8.52
2023-05-02T16:17:56.479Z,8.45
2023-05-02T16:21:00.068Z,8.83
2023-05-02T16:24:02.231Z,9.63
2023-05-02T16:27:03.901Z,7.40
2023-05-02T16:30:06.848Z,7.97
2023-05-02T16:33:08.608Z,7.72
2023-05-02T16:36:10.831Z,10.37
2023-05-02T16:39:12.886Z,9.38
2023-05-02T16:42:14.472Z,8.68
2023-05-02T16:45:16.722Z,9.07
2023-05-02T16:48:19.441Z,9.23
2023-05-02T16:51:21.577Z,8.73
2023-05-02T16:54:23.172Z,9.77
2023-05-02T16:57:25.296Z,10.07
2023-05-02T17:00:27.097Z,9.30
2023-05-02T17:03:29.814Z,8.57
2023-05-02T17:06:32.341Z,7.72
2023-05-02T17:09:37.088Z,8.68
2023-05-02T17:12:38.923Z,9.73
2023-05-02T17:15:41.200Z,9.30
2023-05-02T17:18:43.367Z,8.73
2023-05-02T17:21:45.677Z,9.10
2023-05-02T17:24:51.212Z,8.70
2023-05-02T17:27:52.967Z,8.15
2023-05-02T17:30:56.226Z,8.10
2023-05-02T17:33:58.111Z,9.02
2023-05-02T17:37:06.612Z,9.73
2023-05-02T17:40:09.525Z,11.63
2023-05-02T17:43:11.195Z,11.38
2023-05-02T17:46:14.727Z,10.00
2023-05-02T17:49:18.428Z,8.98
2023-05-02T17:52:21.814Z,9.77
2023-05-02T17:55:23.590Z,9.00
2023-05-02T17:58:25.746Z,11.45
2023-05-02T18:01:27.510Z,17.98
2023-05-02T18:04:29.253Z,10.97
2023-05-02T18:07:31.544Z,11.18
2023-05-02T18:10:37.973Z,11.60
2023-05-02T18:13:39.862Z,10.80
2023-05-02T18:16:46.918Z,12.93
2023-05-02T18:19:50.342Z,10.20
2023-05-02T18:22:52.640Z,10.07
2023-05-02T18:25:55.640Z,11.10
2023-05-02T18:28:57.881Z,13.10
2023-05-02T18:31:59.595Z,10.98
2023-05-02T18:35:02.707Z,12.18
2023-05-02T18:38:12.916Z,12.68
2023-05-02T18:41:15.114Z,10.63
2023-05-02T18:44:16.724Z,12.25
2023-05-02T18:47:19.727Z,12.77
2023-05-02T18:50:22.086Z,14.38
2023-05-02T18:53:26.198Z,10.47
2023-05-02T18:56:28.714Z,11.15
2023-05-02T18:59:31.292Z,11.60
2023-05-02T19:02:33.619Z,10.60
2023-05-02T19:05:36.254Z,10.67
2023-05-02T19:08:40.159Z,10.52
2023-05-02T19:11:43.199Z,10.68
2023-05-02T19:14:45.916Z,11.88
2023-05-02T19:17:50.600Z,14.80
2023-05-02T19:20:52.560Z,16.55
2023-05-02T19:23:56.463Z,11.23
2023-05-02T19:27:00.177Z,14.07
2023-05-02T19:30:02.028Z,17.10
2023-05-02T19:33:03.769Z,12.70
2023-05-02T19:36:07.808Z,19.27
2023-05-02T19:39:11.372Z,16.02
2023-05-02T19:42:13.652Z,14.02
2023-05-02T19:45:15.991Z,18.25
2023-05-02T19:48:18.306Z,21.73
2023-05-02T19:51:25.706Z,17.10
2023-05-02T19:54:28.396Z,11.95
2023-05-02T19:57:30.075Z,10.10
2023-05-02T20:00:32.232Z,8.70
2023-05-02T20:03:35.161Z,9.20
2023-05-02T20:06:37.215Z,9.88
2023-05-02T20:09:39.807Z,9.85
2023-05-02T20:12:44.850Z,9.73
2023-05-02T20:15:50.144Z,10.25
2023-05-02T20:18:52.950Z,11.30
2023-05-02T20:21:56.209Z,11.48
2023-05-02T20:24:57.808Z,12.30
2023-05-02T20:27:59.873Z,12.73
2023-05-02T20:31:02.762Z,10.43
2023-05-02T20:34:04.583Z,11.68
2023-05-02T20:37:06.957Z,12.20
2023-05-02T20:40:10.172Z,11.43
2023-05-02T20:43:12.576Z,12.90
2023-05-02T20:46:20.064Z,14.55
2023-05-02T20:49:22.610Z,14.88
2023-05-02T20:52:24.696Z,16.52
2023-05-02T20:55:26.853Z,15.82
2023-05-02T20:58:28.430Z,15.25
2023-05-02T21:01:30.057Z,13.03
2023-05-02T21:04:33.695Z,14.73
2023-05-02T21:07:36.667Z,14.88
2023-05-02T21:10:38.237Z,14.15
2023-05-02T21:13:40.747Z,12.32
2023-05-02T21:16:43.001Z,15.80
2023-05-02T21:19:45.145Z,13.77
2023-05-02T21:22:47.524Z,14.60
2023-05-02T21:25:49.091Z,14.68
2023-05-02T21:28:52.774Z,14.93
2023-05-02T21:31:54.846Z,14.37
2023-05-02T21:34:57.045Z,15.52
2023-05-02T21:37:59.097Z,15.15
2023-05-02T21:41:05.322Z,15.48
2023-05-02T21:44:10.811Z,13.55
2023-05-02T21:47:12.855Z,17.23
2023-05-02T21:50:14.479Z,14.40
2023-05-02T21:53:16.774Z,13.97
2023-05-02T21:56:18.376Z,17.63
2023-05-02T21:59:21.276Z,13.80
2023-05-02T22:02:23.651Z,15.17
2023-05-02T22:05:26.774Z,19.48
2023-05-02T22:08:28.840Z,16.13
2023-05-02T22:11:32.118Z,15.38
2023-05-02T22:14:44.586Z,13.57
2023-05-02T22:17:48.390Z,12.77
2023-05-02T22:20:50.716Z,13.93
2023-05-02T22:23:52.385Z,13.23
2023-05-02T22:26:55.775Z,13.57
2023-05-02T22:29:58.131Z,13.55
2023-05-02T22:33:00.614Z,14.53
2023-05-02T22:36:02.716Z,13.80
2023-05-02T22:39:08.975Z,13.43
2023-05-02T22:42:10.655Z,18.88
2023-05-02T22:45:13.925Z,15.18
2023-05-02T22:48:15.607Z,14.57
2023-05-02T22:51:17.702Z,16.15
2023-05-02T22:54:21.356Z,15.77
2023-05-02T22:57:24.479Z,15.30
2023-05-02T23:00:27.036Z,14.50
2023-05-02T23:03:28.802Z,15.03
2023-05-02T23:06:31.550Z,16.05
2023-05-02T23:09:33.671Z,14.25
2023-05-02T23:12:35.693Z,14.98
2023-05-02T23:15:38.185Z,15.57
2023-05-02T23:18:39.993Z,13.60
2023-05-02T23:21:42.146Z,15.52
2023-05-02T23:24:46.831Z,15.47
2023-05-02T23:27:48.830Z,15.07
2023-05-02T23:30:51.136Z,15.95
2023-05-02T23:33:53.344Z,18.37
2023-05-02T23:36:55.550Z,15.00
2023-05-02T23:39:58.206Z,15.40
2023-05-02T23:43:00.647Z,16.92
2023-05-02T23:46:02.484Z,18.35
2023-05-02T23:49:04.172Z,14.27
2023-05-02T23:52:06.281Z,15.18
2023-05-02T23:55:10.684Z,15.97
2023-05-02T23:58:14.106Z,13.07
